Reagan, TX (76680)

3:12 AM CST on November 23, 2014 (GMT -0600)
Jones prairie texas | Change Station
CLOSE
Current Station
Personal Weather Station
Location: Cameron, TX
Elevation: 443 ft
Nearby Weather Stations

Elev 443 ft 30.96 °N, 96.84 °W | Updated 8 minutes ago

Overcast
Overcast
61.3 °F
Feels Like 61.3 °F
N
0.0
Wind Variable Wind from West

Today
High -- | Low -- °F
--% Chance of Precip.
Yesterday
High -- | Low -- °F
Precip. -- in
7:01 AM 5:25 PM
New Moon, 1% visible
Pressure 29.66 in
Visibility 10.0 miles
Clouds Overcast 300 ft
Dew Point 61 °F
Humidity 98%
Rainfall 0.00 in
Snow Depth Not available.
UV 0 out of 12
Pollen .60 out of 12
Air Quality Not available.
Flu Activity Not available.
METAR KLHB 230855Z AUTO 00000KT 10SM OVC003 15/15 A2966 RMK AO2 T01480145

More Conditions Fewer Conditions

Pressure 29.66 in
Visibility 10.0 miles
Clouds Overcast 300 ft
Dew Point 61 °F
Humidity 98%
Rainfall 0.00 in
Snow Depth Not available.
UV 0 out of 12
Pollen .60 out of 12
Air Quality Not available.
Flu Activity Not available.
METAR KLHB 230855Z AUTO 00000KT 10SM OVC003 15/15 A2966 RMK AO2 T01480145

More Conditions Fewer Conditions

10-Day Weather Forecast

Almanac

Astronomy

Nov. 23, 2014 Rise Set
Actual Time
Civil Twilight
Nautical Twilight
Astronomical Twilight
Moon
Length of Visible Light
Length of Day
Tomorrow will be .
, % of the Moon is Illuminated

Today's Extremes

State Highs State Lows

Community

WunderPhotos

Upload Photos

1,773,024 photos uploaded!

WunderBlogs® & News

Nearby

Air Quality

  Air Quality AQ Index Pollutant
Not available.

Snow Depth

Station Depth Elevation

Earthquake Activity

City Distance Mag. Time & Date
Minimum magnitude displayed is 2.5.

Coastal Water Temperatures

Place Temperature

Nearby Weather Stations